Sevilleta

Dec. 14, 2019, 2 p.m.

  • imperial
Air Temperature RH Wind Speed Wind Direction Precipitation Solar Radiation
Date Time Max Min Mean Max Min Max Mean Mean Total Total
US/Mountain F F F % % MPH MPH deg. in. MJ/m^2
2019-12-13 18:00 46.04 43.7 44.06 49.0 45.0 7.81 4.61 78.0 0.0 0.0
2019-12-13 19:00 44.06 41.18 42.44 52.0 46.0 4.81 3.6 123.0 0.0 0.0
2019-12-13 20:00 44.96 39.92 42.98 54.0 43.0 6.11 1.99 133.0 0.0 0.0
2019-12-13 21:00 34.7 33.26 33.98 74.0 70.0 6.11 4.5 168.0 0.0 0.0
2019-12-13 22:00 33.62 33.08 33.26 74.0 74.0 6.11 4.61 171.0 0.0 0.0
2019-12-13 23:00 33.62 32.0 32.72 77.0 74.0 6.8 5.19 162.0 0.0 0.0
2019-12-14 00:00 36.5 32.0 34.7 77.0 66.0 9.6 6.11 168.0 0.0 0.0
2019-12-14 01:00 38.66 36.5 37.94 69.0 64.0 8.9 5.5 174.0 0.0 0.0
2019-12-14 02:00 38.84 36.5 37.76 70.0 65.0 8.59 6.0 161.0 0.0 0.0
2019-12-14 03:00 37.76 36.5 37.22 71.0 67.0 7.29 5.1 158.0 0.0 0.0
2019-12-14 04:00 37.4 34.88 35.6 74.0 69.0 6.89 4.9 167.0 0.0 0.0
2019-12-14 05:00 38.3 34.52 35.96 76.0 69.0 7.81 5.19 161.0 0.0 0.0
2019-12-14 06:00 35.42 34.16 34.88 77.0 71.0 7.9 4.0 165.0 0.0 0.002
2019-12-14 07:00 38.12 33.26 36.14 77.0 68.0 6.51 4.09 178.0 0.0 0.195
2019-12-14 08:00 51.08 38.12 45.68 70.0 47.0 6.4 2.91 162.0 0.0 0.599
2019-12-14 09:00 55.4 54.32 54.68 40.0 39.0 7.4 2.59 240.0 0.0 1.34
2019-12-14 10:00 56.48 55.4 55.94 40.0 33.0 8.9 3.69 229.0 0.0 1.769
2019-12-14 11:00 59.54 57.74 58.28 34.0 33.0 16.11 5.5 244.0 0.0 1.968
2019-12-14 12:00 63.32 59.54 62.06 33.0 29.0 19.39 10.29 247.0 0.0 1.974
2019-12-14 13:00 64.4 62.78 63.68 30.0 27.0 19.31 9.8 217.0 0.0 1.711
2019-12-14 14:00 65.3 63.68 64.76 27.0 26.0 13.2 7.49 214.0 0.0 1.099
2019-12-14 15:00
2019-12-14 16:00
2019-12-14 17:00

Data is presented as is, with no certification of correctness. DO NOT USE IN LEGAL PROCEEDINGS.